Time;durP1;ratioP1;P1;durP2;ratioP2;P2;SDS_P1;SDS_P2;PMS_P1;PMS_P2;Temp;Humidity;BMP_temperature;BMP_pressure;BME280_temperature;BME280_humidity;BME280_pressure;Samples;Min_cycle;Max_cycle;Signal;HPM_P1;HPM_P2
2023/06/30 00:02:12;;;;;;;;;;;20.10;67.20;;;;;;5006820;28;92628;-44
2023/06/30 00:04:38;;;;;;;;;;;20.10;67.30;;;;;;5006470;28;93879;-44
2023/06/30 00:07:05;;;;;;;;;;;20.00;67.20;;;;;;5008117;28;95467;-45
2023/06/30 00:09:31;;;;;;;;;;;20.10;67.20;;;;;;5010052;28;92132;-43
2023/06/30 00:11:56;;;;;;;;;;;20.10;67.00;;;;;;5014052;28;92569;-43
2023/06/30 00:14:22;;;;;;;;;;;20.10;67.10;;;;;;5010879;28;92110;-43
2023/06/30 00:16:49;;;;;;;;;;;20.00;67.00;;;;;;5010540;28;92329;-45
2023/06/30 00:19:15;;;;;;;;;;;20.00;67.00;;;;;;5009713;28;94404;-43
2023/06/30 00:21:41;;;;;;;;;;;20.00;67.20;;;;;;5010969;28;92184;-46
2023/06/30 00:24:10;;;;;;;;;;;20.00;67.10;;;;;;5010933;28;92481;-45
2023/06/30 00:26:36;;;;;;;;;;;20.00;67.20;;;;;;5009645;28;94334;-44
2023/06/30 00:29:02;;;;;;;;;;;19.90;66.90;;;;;;5010398;28;92120;-46
2023/06/30 00:31:28;;;;;;;;;;;19.90;67.10;;;;;;5010696;28;93029;-45
2023/06/30 00:33:53;;;;;;;;;;;19.90;67.20;;;;;;5011495;28;93324;-43
2023/06/30 00:36:19;;;;;;;;;;;19.90;67.10;;;;;;5009785;28;92606;-44
2023/06/30 00:38:44;;;;;;;;;;;19.90;67.10;;;;;;5010613;28;94765;-43
2023/06/30 00:41:10;;;;;;;;;;;19.90;67.10;;;;;;5008693;28;92051;-45
2023/06/30 00:43:37;;;;;;;;;;;19.80;67.00;;;;;;5011859;28;92536;-46
2023/06/30 00:46:03;;;;;;;;;;;19.80;67.10;;;;;;5008407;28;93298;-44
2023/06/30 00:48:28;;;;;;;;;;;19.80;67.10;;;;;;5008423;28;91567;-47
2023/06/30 00:50:54;;;;;;;;;;;19.80;67.20;;;;;;5012498;28;92604;-45
2023/06/30 00:53:19;;;;;;;;;;;19.80;67.20;;;;;;5003719;28;94682;-44
2023/06/30 00:55:45;;;;;;;;;;;19.80;67.20;;;;;;5014813;28;93178;-46
2023/06/30 00:58:10;;;;;;;;;;;19.80;67.10;;;;;;5008193;28;92420;-44
2023/06/30 01:00:36;;;;;;;;;;;19.80;67.10;;;;;;5011431;28;92211;-46
2023/06/30 01:03:15;;;;;;;;;;;19.70;67.10;;;;;;5007197;28;92923;-45
2023/06/30 01:05:43;;;;;;;;;;;19.70;67.10;;;;;;5004745;28;93146;-44
2023/06/30 01:08:31;;;;;;;;;;;19.80;67.20;;;;;;5011263;28;92046;-44
2023/06/30 01:10:57;;;;;;;;;;;19.70;67.10;;;;;;5011988;28;92255;-46
2023/06/30 01:13:24;;;;;;;;;;;19.70;67.20;;;;;;5008382;28;92287;-46
2023/06/30 01:15:50;;;;;;;;;;;19.70;67.10;;;;;;5014773;28;92225;-47
2023/06/30 01:18:19;;;;;;;;;;;19.60;67.10;;;;;;5005726;28;92600;-49
2023/06/30 01:20:45;;;;;;;;;;;19.60;67.10;;;;;;5007219;28;93155;-48
2023/06/30 01:23:17;;;;;;;;;;;19.60;67.10;;;;;;5011480;28;93354;-47
2023/06/30 01:25:43;;;;;;;;;;;19.60;67.10;;;;;;5003738;28;92945;-47
2023/06/30 01:28:09;;;;;;;;;;;19.60;67.20;;;;;;5011902;28;92520;-47
2023/06/30 01:30:36;;;;;;;;;;;19.60;67.20;;;;;;5004084;28;93010;-49
2023/06/30 01:33:01;;;;;;;;;;;19.60;67.20;;;;;;5010112;28;94752;-49
2023/06/30 01:35:27;;;;;;;;;;;19.60;67.10;;;;;;5007961;28;92282;-47
2023/06/30 01:37:53;;;;;;;;;;;19.50;67.10;;;;;;5013973;28;92464;-44
2023/06/30 01:40:19;;;;;;;;;;;19.50;67.20;;;;;;5005275;28;92268;-44
2023/06/30 01:42:45;;;;;;;;;;;19.50;67.10;;;;;;5010825;28;92515;-44
2023/06/30 01:45:11;;;;;;;;;;;19.50;67.20;;;;;;5008103;28;93951;-43
2023/06/30 01:47:36;;;;;;;;;;;19.50;67.20;;;;;;5008573;28;92229;-43
2023/06/30 01:50:02;;;;;;;;;;;19.50;67.10;;;;;;5010476;28;93023;-45
2023/06/30 01:52:28;;;;;;;;;;;19.50;67.10;;;;;;5009273;28;93159;-44
2023/06/30 01:54:53;;;;;;;;;;;19.40;67.10;;;;;;5010451;28;92242;-43
2023/06/30 01:57:19;;;;;;;;;;;19.40;67.00;;;;;;5009943;28;92396;-43
2023/06/30 01:59:44;;;;;;;;;;;19.40;67.00;;;;;;5012624;28;93229;-44
2023/06/30 02:02:11;;;;;;;;;;;19.40;67.10;;;;;;5010579;28;93756;-43
2023/06/30 02:04:36;;;;;;;;;;;19.40;67.20;;;;;;5007901;28;93181;-43
2023/06/30 02:07:02;;;;;;;;;;;19.40;67.10;;;;;;5009362;28;92356;-43
2023/06/30 02:09:27;;;;;;;;;;;19.40;67.20;;;;;;5010387;28;93052;-45
2023/06/30 02:11:52;;;;;;;;;;;19.30;67.70;;;;;;5008019;28;93235;-43
2023/06/30 02:14:18;;;;;;;;;;;19.30;67.20;;;;;;5011364;28;92186;-43
2023/06/30 02:16:43;;;;;;;;;;;19.30;67.10;;;;;;5008018;28;92049;-43
2023/06/30 02:19:09;;;;;;;;;;;19.30;67.10;;;;;;5007066;28;92821;-44
2023/06/30 02:21:35;;;;;;;;;;;19.30;67.00;;;;;;5013119;28;92123;-43
2023/06/30 02:24:00;;;;;;;;;;;19.30;67.10;;;;;;5007175;28;93364;-44
2023/06/30 02:26:26;;;;;;;;;;;19.20;67.10;;;;;;5011522;28;91390;-43
2023/06/30 02:28:51;;;;;;;;;;;19.20;67.30;;;;;;5007529;28;92000;-44
2023/06/30 02:31:17;;;;;;;;;;;19.20;67.20;;;;;;5009928;28;93059;-44
2023/06/30 02:33:42;;;;;;;;;;;19.20;67.10;;;;;;5003458;28;93111;-43
2023/06/30 02:36:07;;;;;;;;;;;19.20;67.10;;;;;;5008750;28;94066;-44
2023/06/30 02:38:33;;;;;;;;;;;19.10;67.20;;;;;;5009596;28;93108;-43
2023/06/30 02:40:59;;;;;;;;;;;19.10;67.20;;;;;;5008919;28;92151;-44
2023/06/30 02:43:24;;;;;;;;;;;19.10;67.10;;;;;;5012053;28;92064;-43
2023/06/30 02:45:50;;;;;;;;;;;19.20;67.10;;;;;;5009593;28;92108;-44
2023/06/30 02:48:16;;;;;;;;;;;19.10;67.00;;;;;;5005383;28;92882;-43
2023/06/30 02:50:41;;;;;;;;;;;19.10;67.10;;;;;;5006340;28;92549;-43
2023/06/30 02:53:07;;;;;;;;;;;19.10;67.20;;;;;;5009921;28;92029;-43
2023/06/30 02:55:33;;;;;;;;;;;19.10;67.20;;;;;;5008499;28;92299;-43
2023/06/30 02:57:58;;;;;;;;;;;19.10;67.10;;;;;;5009058;28;93928;-45
2023/06/30 03:00:24;;;;;;;;;;;19.00;67.10;;;;;;5007644;28;92165;-43
2023/06/30 03:02:49;;;;;;;;;;;19.00;67.00;;;;;;5010065;28;93581;-46
2023/06/30 03:05:15;;;;;;;;;;;19.00;67.10;;;;;;5005482;28;93625;-43
2023/06/30 03:07:41;;;;;;;;;;;19.00;67.00;;;;;;5006983;28;93848;-47
2023/06/30 03:10:07;;;;;;;;;;;18.90;67.10;;;;;;5010488;28;93044;-45
2023/06/30 03:12:32;;;;;;;;;;;19.00;67.10;;;;;;5006873;28;92167;-43
2023/06/30 03:14:58;;;;;;;;;;;18.90;67.10;;;;;;5011030;28;91629;-44
2023/06/30 03:17:23;;;;;;;;;;;18.90;67.30;;;;;;5006768;28;93218;-45
2023/06/30 03:19:48;;;;;;;;;;;18.90;67.10;;;;;;5009463;28;92141;-45
2023/06/30 03:22:14;;;;;;;;;;;18.90;67.00;;;;;;5007399;28;93114;-43
2023/06/30 03:24:39;;;;;;;;;;;18.90;67.10;;;;;;5012007;28;93231;-43
2023/06/30 03:27:05;;;;;;;;;;;18.90;67.00;;;;;;5008189;28;92066;-44
2023/06/30 03:29:31;;;;;;;;;;;18.80;67.00;;;;;;5008338;28;93237;-45
2023/06/30 03:31:56;;;;;;;;;;;18.90;67.10;;;;;;5008326;28;92122;-44
2023/06/30 03:34:22;;;;;;;;;;;18.80;67.00;;;;;;5006477;28;94078;-43
2023/06/30 03:36:47;;;;;;;;;;;18.80;67.00;;;;;;5007873;28;93472;-44
2023/06/30 03:39:13;;;;;;;;;;;18.80;67.10;;;;;;5009616;28;91634;-43
2023/06/30 03:41:38;;;;;;;;;;;18.80;67.10;;;;;;5009802;28;92149;-43
2023/06/30 03:44:04;;;;;;;;;;;18.80;67.00;;;;;;5012763;28;93590;-44
2023/06/30 03:46:29;;;;;;;;;;;18.70;67.00;;;;;;5013470;28;93173;-43
2023/06/30 03:48:55;;;;;;;;;;;18.80;67.10;;;;;;5009793;28;93096;-45
2023/06/30 03:51:20;;;;;;;;;;;18.70;67.00;;;;;;5013720;28;92143;-44
2023/06/30 03:53:46;;;;;;;;;;;18.70;67.00;;;;;;5010095;28;92774;-43
2023/06/30 03:56:11;;;;;;;;;;;18.80;67.00;;;;;;5005689;28;93100;-43
2023/06/30 03:58:37;;;;;;;;;;;18.70;67.00;;;;;;5013579;28;92254;-44
2023/06/30 04:01:02;;;;;;;;;;;18.70;67.00;;;;;;5010398;28;92979;-43
2023/06/30 04:03:28;;;;;;;;;;;18.70;66.90;;;;;;5013068;28;92352;-44
2023/06/30 04:05:53;;;;;;;;;;;18.70;66.80;;;;;;5007434;28;92187;-43
2023/06/30 04:08:19;;;;;;;;;;;18.70;66.90;;;;;;5015165;28;92461;-44
2023/06/30 04:10:45;;;;;;;;;;;18.70;66.90;;;;;;5010595;28;93273;-43
2023/06/30 04:13:10;;;;;;;;;;;18.70;66.80;;;;;;5012156;28;93290;-44
2023/06/30 04:15:36;;;;;;;;;;;18.70;66.90;;;;;;5011117;28;92985;-43
2023/06/30 04:18:02;;;;;;;;;;;18.70;66.90;;;;;;5011514;28;92162;-43
2023/06/30 04:20:28;;;;;;;;;;;18.70;66.90;;;;;;5008706;28;92122;-44
2023/06/30 04:22:53;;;;;;;;;;;18.60;66.90;;;;;;5011289;28;93615;-45
2023/06/30 04:25:19;;;;;;;;;;;18.60;66.80;;;;;;5010910;28;92178;-44
2023/06/30 04:27:44;;;;;;;;;;;18.60;66.80;;;;;;5012516;28;92395;-44
2023/06/30 04:30:10;;;;;;;;;;;18.60;66.80;;;;;;5013210;28;93159;-43
2023/06/30 04:32:36;;;;;;;;;;;18.60;66.90;;;;;;5012586;28;93818;-44
2023/06/30 04:35:01;;;;;;;;;;;18.60;66.90;;;;;;5007567;28;94136;-44
2023/06/30 04:37:28;;;;;;;;;;;18.60;66.90;;;;;;5009781;28;92081;-45
2023/06/30 04:39:57;;;;;;;;;;;18.60;66.90;;;;;;5012067;28;94260;-45
2023/06/30 04:42:23;;;;;;;;;;;18.60;66.90;;;;;;5009683;28;93340;-46
2023/06/30 04:44:49;;;;;;;;;;;18.60;66.90;;;;;;5012682;28;92124;-44
2023/06/30 04:47:18;;;;;;;;;;;18.50;66.80;;;;;;5009533;28;92516;-46
2023/06/30 04:49:43;;;;;;;;;;;18.60;66.90;;;;;;5007579;28;93750;-44
2023/06/30 04:52:09;;;;;;;;;;;18.50;66.80;;;;;;5015313;28;91791;-46
2023/06/30 04:54:34;;;;;;;;;;;18.50;66.80;;;;;;5008836;28;93157;-45
2023/06/30 04:57:00;;;;;;;;;;;18.50;66.80;;;;;;5012836;28;92176;-44
2023/06/30 04:59:25;;;;;;;;;;;18.50;66.90;;;;;;5008523;28;92998;-45
2023/06/30 05:01:51;;;;;;;;;;;18.50;66.90;;;;;;5012000;28;93369;-46
2023/06/30 05:04:16;;;;;;;;;;;18.50;66.90;;;;;;5008785;28;92535;-47
2023/06/30 05:06:42;;;;;;;;;;;18.50;67.00;;;;;;5011831;28;92441;-45
2023/06/30 05:09:07;;;;;;;;;;;18.50;67.10;;;;;;5009011;28;93720;-48
2023/06/30 05:11:33;;;;;;;;;;;18.50;67.00;;;;;;5011580;28;92403;-45
2023/06/30 05:13:58;;;;;;;;;;;18.50;67.00;;;;;;5012751;28;92509;-45
2023/06/30 05:16:24;;;;;;;;;;;18.50;67.00;;;;;;5011325;28;91419;-44
2023/06/30 05:18:49;;;;;;;;;;;18.50;67.00;;;;;;5010498;28;92160;-46
2023/06/30 05:21:15;;;;;;;;;;;18.50;67.10;;;;;;5009243;28;93224;-47
2023/06/30 05:23:41;;;;;;;;;;;18.50;67.10;;;;;;5009440;28;93459;-47
2023/06/30 05:26:06;;;;;;;;;;;18.60;67.20;;;;;;5011198;28;93006;-46
2023/06/30 05:28:34;;;;;;;;;;;18.50;67.10;;;;;;5008887;28;93358;-46
2023/06/30 05:30:59;;;;;;;;;;;18.50;67.20;;;;;;5011073;28;92147;-47
2023/06/30 05:33:25;;;;;;;;;;;18.60;67.10;;;;;;5011940;28;92538;-47
2023/06/30 05:35:50;;;;;;;;;;;18.60;67.20;;;;;;5008270;28;92235;-46
2023/06/30 05:38:16;;;;;;;;;;;18.60;67.30;;;;;;5011744;28;92394;-43
2023/06/30 05:40:41;;;;;;;;;;;18.60;67.30;;;;;;5008303;28;92314;-43
2023/06/30 05:43:07;;;;;;;;;;;18.60;67.20;;;;;;5012111;28;92053;-44
2023/06/30 05:45:32;;;;;;;;;;;18.50;67.30;;;;;;5008506;28;92016;-45
2023/06/30 05:47:58;;;;;;;;;;;18.50;67.40;;;;;;5002927;28;93230;-43
2023/06/30 05:50:24;;;;;;;;;;;18.60;67.40;;;;;;5011032;28;92291;-44
2023/06/30 05:52:49;;;;;;;;;;;18.50;67.40;;;;;;5008569;28;92580;-44
2023/06/30 05:55:15;;;;;;;;;;;18.60;67.40;;;;;;5014235;28;93004;-43
2023/06/30 05:57:40;;;;;;;;;;;18.60;67.40;;;;;;5008643;28;93569;-44
2023/06/30 06:00:07;;;;;;;;;;;18.50;67.40;;;;;;5010308;28;93073;-43
2023/06/30 06:02:33;;;;;;;;;;;18.60;67.60;;;;;;5008612;28;92171;-43
2023/06/30 06:04:59;;;;;;;;;;;18.60;67.60;;;;;;5007695;28;93896;-43
2023/06/30 06:07:24;;;;;;;;;;;18.60;67.60;;;;;;5008527;28;94992;-45
2023/06/30 06:09:50;;;;;;;;;;;18.60;67.60;;;;;;5009563;28;92111;-44
2023/06/30 06:12:15;;;;;;;;;;;18.60;67.70;;;;;;5009432;28;93027;-43
2023/06/30 06:14:41;;;;;;;;;;;18.60;67.50;;;;;;5009556;28;93059;-45
2023/06/30 06:17:07;;;;;;;;;;;18.50;67.60;;;;;;5012427;28;92081;-44
2023/06/30 06:19:33;;;;;;;;;;;18.60;67.70;;;;;;5009758;28;93244;-44
2023/06/30 06:21:58;;;;;;;;;;;18.60;67.80;;;;;;5006976;28;92142;-46
2023/06/30 06:24:24;;;;;;;;;;;18.60;67.70;;;;;;5008849;28;92443;-43
2023/06/30 06:26:49;;;;;;;;;;;18.60;67.70;;;;;;5010158;28;93086;-44
2023/06/30 06:29:21;;;;;;;;;;;18.60;67.80;;;;;;5008985;28;91415;-43
2023/06/30 06:31:48;;;;;;;;;;;18.50;67.80;;;;;;5010123;28;93090;-43
2023/06/30 06:34:14;;;;;;;;;;;18.60;67.80;;;;;;5008050;28;94590;-46
2023/06/30 06:36:40;;;;;;;;;;;18.50;67.80;;;;;;5008955;28;93096;-44
2023/06/30 06:39:05;;;;;;;;;;;18.60;68.00;;;;;;5010926;28;93397;-43
2023/06/30 06:41:31;;;;;;;;;;;18.60;67.90;;;;;;5010336;28;92280;-45
2023/06/30 06:43:56;;;;;;;;;;;18.60;68.00;;;;;;5008003;28;92364;-44
2023/06/30 06:46:22;;;;;;;;;;;18.60;68.10;;;;;;5010541;28;93019;-43
2023/06/30 06:48:47;;;;;;;;;;;18.60;68.10;;;;;;5007514;28;92762;-44
2023/06/30 06:51:13;;;;;;;;;;;18.60;68.10;;;;;;5008580;28;92561;-44
2023/06/30 06:53:39;;;;;;;;;;;18.60;68.00;;;;;;5010919;28;92111;-43
2023/06/30 06:56:04;;;;;;;;;;;18.60;68.10;;;;;;5007332;28;92210;-43
2023/06/30 06:58:31;;;;;;;;;;;18.50;68.00;;;;;;5010465;28;92433;-43
2023/06/30 07:00:56;;;;;;;;;;;18.60;68.10;;;;;;5009630;28;94409;-43
2023/06/30 07:03:22;;;;;;;;;;;18.60;68.10;;;;;;5010200;28;93314;-43
2023/06/30 07:05:48;;;;;;;;;;;18.50;68.00;;;;;;5007203;28;93368;-43
2023/06/30 07:08:14;;;;;;;;;;;18.60;68.00;;;;;;5008356;28;92079;-44
2023/06/30 07:10:40;;;;;;;;;;;18.60;68.10;;;;;;5009302;28;93800;-44
2023/06/30 07:13:05;;;;;;;;;;;18.60;68.00;;;;;;5007962;28;93419;-43
2023/06/30 07:15:31;;;;;;;;;;;18.60;68.10;;;;;;5008932;28;92173;-45
2023/06/30 07:17:57;;;;;;;;;;;18.60;68.30;;;;;;5009103;28;92293;-44
2023/06/30 07:20:25;;;;;;;;;;;18.50;67.90;;;;;;5006755;28;94425;-43
2023/06/30 07:22:52;;;;;;;;;;;18.60;68.10;;;;;;5007306;28;92366;-44
2023/06/30 07:25:17;;;;;;;;;;;18.60;68.20;;;;;;5007538;28;95311;-43
2023/06/30 07:27:52;;;;;;;;;;;18.60;68.10;;;;;;5008257;28;92258;-44
2023/06/30 07:30:18;;;;;;;;;;;18.60;68.30;;;;;;5007864;28;92381;-44
2023/06/30 07:32:44;;;;;;;;;;;18.60;68.30;;;;;;5008710;28;93387;-44
2023/06/30 07:35:09;;;;;;;;;;;18.50;68.20;;;;;;5008206;28;92199;-43
2023/06/30 07:37:35;;;;;;;;;;;18.50;68.20;;;;;;5006083;28;92410;-44
2023/06/30 07:40:00;;;;;;;;;;;18.60;68.40;;;;;;5007618;28;93744;-43
2023/06/30 07:42:26;;;;;;;;;;;18.60;68.20;;;;;;5012494;28;91340;-44
2023/06/30 07:44:51;;;;;;;;;;;18.60;68.20;;;;;;5007777;28;93108;-43
2023/06/30 07:47:18;;;;;;;;;;;18.60;68.30;;;;;;5009124;28;92079;-45
2023/06/30 07:49:43;;;;;;;;;;;18.60;68.50;;;;;;5007218;28;93000;-45
2023/06/30 07:52:09;;;;;;;;;;;18.60;68.30;;;;;;5004844;28;94345;-43
2023/06/30 07:54:35;;;;;;;;;;;18.60;68.30;;;;;;5009432;28;92246;-44
2023/06/30 07:57:00;;;;;;;;;;;18.60;68.30;;;;;;5007163;28;92534;-45
2023/06/30 07:59:26;;;;;;;;;;;18.60;68.40;;;;;;5009505;28;93691;-44
2023/06/30 08:01:51;;;;;;;;;;;18.60;68.40;;;;;;5006557;28;92149;-43
2023/06/30 08:04:18;;;;;;;;;;;18.60;68.30;;;;;;5012498;28;94042;-43
2023/06/30 08:06:44;;;;;;;;;;;18.60;68.20;;;;;;4998847;28;91443;-43
2023/06/30 08:09:09;;;;;;;;;;;18.70;68.30;;;;;;5002258;28;93247;-43
2023/06/30 08:11:35;;;;;;;;;;;18.60;68.30;;;;;;5006227;28;93191;-43
2023/06/30 08:14:02;;;;;;;;;;;18.60;68.30;;;;;;5008450;28;93670;-43
2023/06/30 08:16:27;;;;;;;;;;;18.60;68.60;;;;;;5006238;28;95050;-43
2023/06/30 08:18:53;;;;;;;;;;;18.60;68.50;;;;;;5008564;28;94280;-43
2023/06/30 08:21:19;;;;;;;;;;;18.60;68.50;;;;;;5007632;28;92826;-44
2023/06/30 08:23:44;;;;;;;;;;;18.60;68.50;;;;;;5006910;28;93471;-44
2023/06/30 08:26:10;;;;;;;;;;;18.70;68.70;;;;;;5011221;28;93711;-44
2023/06/30 08:28:35;;;;;;;;;;;18.60;68.50;;;;;;5009463;28;93316;-43
2023/06/30 08:31:01;;;;;;;;;;;18.70;68.70;;;;;;5011675;28;92382;-44
2023/06/30 08:33:27;;;;;;;;;;;18.60;68.70;;;;;;5011337;28;92179;-44
2023/06/30 08:35:52;;;;;;;;;;;18.70;68.60;;;;;;5011321;28;92354;-43
2023/06/30 08:38:18;;;;;;;;;;;18.70;68.60;;;;;;5009051;28;94239;-44
2023/06/30 08:40:43;;;;;;;;;;;18.70;68.70;;;;;;5011599;28;92144;-44
2023/06/30 08:43:12;;;;;;;;;;;18.70;68.60;;;;;;5010473;28;92473;-44
2023/06/30 08:45:42;;;;;;;;;;;18.70;68.90;;;;;;5010910;28;94209;-45
2023/06/30 08:48:08;;;;;;;;;;;18.80;68.60;;;;;;5014028;28;92250;-43
2023/06/30 08:50:34;;;;;;;;;;;18.70;68.60;;;;;;5010906;28;93536;-47
2023/06/30 08:53:00;;;;;;;;;;;18.80;68.70;;;;;;5009714;28;92568;-45
2023/06/30 08:55:25;;;;;;;;;;;18.80;68.70;;;;;;5011111;28;92931;-44
2023/06/30 08:57:53;;;;;;;;;;;18.80;68.80;;;;;;5011060;28;93183;-46
2023/06/30 09:00:19;;;;;;;;;;;18.80;68.60;;;;;;5010057;28;92158;-44
2023/06/30 09:02:45;;;;;;;;;;;18.80;68.60;;;;;;5011027;28;94018;-46
2023/06/30 09:05:11;;;;;;;;;;;18.80;68.70;;;;;;5009392;28;92992;-48
2023/06/30 09:07:44;;;;;;;;;;;18.80;68.60;;;;;;5007911;28;92794;-44
2023/06/30 09:10:09;;;;;;;;;;;18.80;68.70;;;;;;5011001;28;95479;-45
2023/06/30 09:12:37;;;;;;;;;;;18.80;68.70;;;;;;5008497;28;92158;-46
2023/06/30 09:15:02;;;;;;;;;;;18.80;68.70;;;;;;5011246;28;92694;-46
2023/06/30 09:17:29;;;;;;;;;;;18.80;68.70;;;;;;5009388;28;92219;-47
2023/06/30 09:19:55;;;;;;;;;;;18.90;68.70;;;;;;5012079;28;91421;-47
2023/06/30 09:22:21;;;;;;;;;;;18.90;68.70;;;;;;5007665;28;92561;-47
2023/06/30 09:24:47;;;;;;;;;;;18.90;68.70;;;;;;5007471;28;93729;-46
2023/06/30 09:27:13;;;;;;;;;;;18.90;68.80;;;;;;5009788;28;93146;-49
2023/06/30 09:29:38;;;;;;;;;;;18.90;68.80;;;;;;5010005;28;93410;-47
2023/06/30 09:32:05;;;;;;;;;;;18.90;68.90;;;;;;5010310;28;92230;-47
2023/06/30 09:34:30;;;;;;;;;;;18.90;68.80;;;;;;5006751;28;94038;-47
2023/06/30 09:36:56;;;;;;;;;;;18.90;69.40;;;;;;5005977;28;93128;-49
2023/06/30 09:39:22;;;;;;;;;;;19.00;68.80;;;;;;5011431;28;92398;-49
2023/06/30 09:41:48;;;;;;;;;;;19.00;68.80;;;;;;5008491;28;92385;-49
2023/06/30 09:44:15;;;;;;;;;;;19.00;68.70;;;;;;5011681;28;92399;-45
2023/06/30 09:47:00;;;;;;;;;;;19.00;68.70;;;;;;5008577;28;92255;-43
2023/06/30 09:49:32;;;;;;;;;;;19.00;68.70;;;;;;5008068;28;92453;-44
2023/06/30 09:51:59;;;;;;;;;;;19.10;68.80;;;;;;5009595;28;94036;-45
2023/06/30 09:54:25;;;;;;;;;;;19.10;68.80;;;;;;5010597;28;93336;-44
2023/06/30 09:57:00;;;;;;;;;;;19.10;68.70;;;;;;5009013;28;93229;-44
2023/06/30 09:59:26;;;;;;;;;;;19.10;69.30;;;;;;5011555;28;92188;-44
2023/06/30 10:01:53;;;;;;;;;;;19.20;68.80;;;;;;5008467;28;92849;-44
2023/06/30 10:04:19;;;;;;;;;;;19.20;68.80;;;;;;5010688;28;93045;-44
2023/06/30 10:06:46;;;;;;;;;;;19.20;68.80;;;;;;5008543;28;92250;-46
2023/06/30 10:09:12;;;;;;;;;;;19.20;68.80;;;;;;5011560;28;93762;-44
2023/06/30 10:11:39;;;;;;;;;;;19.20;68.80;;;;;;5008338;28;93459;-44
2023/06/30 10:14:05;;;;;;;;;;;19.20;68.80;;;;;;5013921;28;92190;-43
2023/06/30 10:16:30;;;;;;;;;;;19.30;68.80;;;;;;5007807;28;94102;-46
2023/06/30 10:18:58;;;;;;;;;;;19.30;68.80;;;;;;5009929;28;92236;-43
2023/06/30 10:21:23;;;;;;;;;;;19.30;68.80;;;;;;5009021;28;92334;-43
2023/06/30 10:23:49;;;;;;;;;;;19.30;68.80;;;;;;5008048;28;93137;-50
2023/06/30 10:26:17;;;;;;;;;;;19.30;68.80;;;;;;5010012;28;92400;-45
2023/06/30 10:28:43;;;;;;;;;;;19.40;68.90;;;;;;5008997;28;92772;-43
2023/06/30 10:31:09;;;;;;;;;;;19.40;68.80;;;;;;5009371;28;93089;-43
2023/06/30 10:33:34;;;;;;;;;;;19.40;68.80;;;;;;5009820;28;91389;-43
2023/06/30 10:36:00;;;;;;;;;;;19.40;68.80;;;;;;5012078;28;92481;-43
2023/06/30 10:38:26;;;;;;;;;;;19.40;68.80;;;;;;5007263;28;92133;-43
2023/06/30 10:41:10;;;;;;;;;;;19.40;68.80;;;;;;5008490;28;93060;-43
2023/06/30 10:43:55;;;;;;;;;;;19.40;68.70;;;;;;5003183;28;93326;-43
2023/06/30 10:46:20;;;;;;;;;;;19.40;68.70;;;;;;5008045;28;92589;-42
2023/06/30 10:48:46;;;;;;;;;;;19.50;68.70;;;;;;5007807;28;95389;-43
2023/06/30 10:51:12;;;;;;;;;;;19.50;68.70;;;;;;5007649;28;93597;-44
2023/06/30 10:53:41;;;;;;;;;;;19.50;68.80;;;;;;5006455;28;92142;-43
2023/06/30 10:56:08;;;;;;;;;;;19.60;68.80;;;;;;5009159;28;92349;-43
2023/06/30 10:58:39;;;;;;;;;;;19.60;68.80;;;;;;5012170;28;92519;-43
2023/06/30 11:01:05;;;;;;;;;;;19.60;68.70;;;;;;5008819;28;92602;-43
2023/06/30 11:03:50;;;;;;;;;;;19.60;68.70;;;;;;5007685;28;94718;-43
2023/06/30 11:06:17;;;;;;;;;;;19.60;68.60;;;;;;5004102;28;93204;-44
2023/06/30 11:08:58;;;;;;;;;;;19.60;68.60;;;;;;5006100;28;93758;-43
2023/06/30 11:11:23;;;;;;;;;;;19.60;68.60;;;;;;5007866;28;93160;-43
2023/06/30 11:14:02;;;;;;;;;;;19.70;68.60;;;;;;5009409;28;92191;-43
2023/06/30 11:16:28;;;;;;;;;;;19.70;68.60;;;;;;5003396;28;92590;-43
2023/06/30 11:18:58;;;;;;;;;;;19.70;68.50;;;;;;5002374;28;94813;-43
2023/06/30 11:21:23;;;;;;;;;;;19.70;68.50;;;;;;5006606;28;92152;-43
2023/06/30 11:23:49;;;;;;;;;;;19.70;68.50;;;;;;5006086;28;92565;-43
2023/06/30 11:26:16;;;;;;;;;;;19.70;68.50;;;;;;5010721;28;92043;-42
2023/06/30 11:28:42;;;;;;;;;;;19.80;68.50;;;;;;5006398;28;92051;-43
2023/06/30 11:31:07;;;;;;;;;;;19.80;68.50;;;;;;5008990;28;95572;-43
2023/06/30 11:33:38;;;;;;;;;;;19.80;68.40;;;;;;5007227;28;92234;-43
2023/06/30 11:36:04;;;;;;;;;;;19.80;68.40;;;;;;5003164;28;92395;-43
2023/06/30 11:38:29;;;;;;;;;;;19.80;68.40;;;;;;5008088;28;93131;-42
2023/06/30 11:40:56;;;;;;;;;;;19.80;68.30;;;;;;5012987;28;92181;-44
2023/06/30 11:43:22;;;;;;;;;;;19.90;68.30;;;;;;5006117;28;94414;-43
2023/06/30 11:45:54;;;;;;;;;;;19.90;68.40;;;;;;5009987;28;92230;-43
2023/06/30 11:48:20;;;;;;;;;;;19.90;68.30;;;;;;5003348;28;92519;-46
2023/06/30 11:50:45;;;;;;;;;;;19.90;68.20;;;;;;5009775;28;93961;-43
2023/06/30 11:53:11;;;;;;;;;;;20.00;68.30;;;;;;5007490;28;92309;-43
2023/06/30 11:55:41;;;;;;;;;;;20.00;68.20;;;;;;5006557;28;92961;-43
2023/06/30 11:58:08;;;;;;;;;;;20.00;68.20;;;;;;5001860;28;93548;-44
2023/06/30 12:00:34;;;;;;;;;;;20.00;68.10;;;;;;5002664;28;92148;-43
2023/06/30 12:02:59;;;;;;;;;;;20.00;68.10;;;;;;5013967;28;95607;-43
2023/06/30 12:05:26;;;;;;;;;;;20.10;68.20;;;;;;5010213;28;92230;-43
2023/06/30 12:07:52;;;;;;;;;;;20.10;68.20;;;;;;5010724;28;92360;-43
2023/06/30 12:10:18;;;;;;;;;;;20.10;68.10;;;;;;5012556;28;93043;-44
2023/06/30 12:12:52;;;;;;;;;;;20.10;68.10;;;;;;5010932;28;91829;-43
2023/06/30 12:15:17;;;;;;;;;;;20.10;68.00;;;;;;5006256;28;92055;-43
2023/06/30 12:17:43;;;;;;;;;;;20.10;68.00;;;;;;5013020;28;93161;-43
2023/06/30 12:20:10;;;;;;;;;;;20.10;68.60;;;;;;5009102;28;93140;-43
2023/06/30 12:22:38;;;;;;;;;;;20.20;68.10;;;;;;5013217;28;93607;-43
2023/06/30 12:25:07;;;;;;;;;;;20.20;68.00;;;;;;5011296;28;94416;-43
2023/06/30 12:27:35;;;;;;;;;;;20.20;67.90;;;;;;5005478;28;93834;-42
2023/06/30 12:30:01;;;;;;;;;;;20.20;67.90;;;;;;5005324;28;94780;-43
2023/06/30 12:32:31;;;;;;;;;;;20.30;67.90;;;;;;5005591;28;92187;-43
2023/06/30 12:35:01;;;;;;;;;;;20.30;67.90;;;;;;5005981;28;92739;-43
2023/06/30 12:37:29;;;;;;;;;;;20.30;67.90;;;;;;5012484;28;93831;-44
2023/06/30 12:39:56;;;;;;;;;;;20.30;67.80;;;;;;5008181;28;92242;-43
2023/06/30 12:42:22;;;;;;;;;;;20.30;67.80;;;;;;5009977;28;93837;-45
2023/06/30 12:44:48;;;;;;;;;;;20.30;67.90;;;;;;5011399;28;93955;-44
2023/06/30 12:47:13;;;;;;;;;;;20.40;67.90;;;;;;5012826;28;92165;-44
2023/06/30 12:49:39;;;;;;;;;;;20.40;67.90;;;;;;5012485;28;93274;-45
2023/06/30 12:52:06;;;;;;;;;;;20.40;67.90;;;;;;5009311;28;92466;-44
2023/06/30 12:54:32;;;;;;;;;;;20.40;68.60;;;;;;5007891;28;93638;-45
2023/06/30 12:56:57;;;;;;;;;;;20.40;67.90;;;;;;5012720;28;93343;-43
2023/06/30 12:59:23;;;;;;;;;;;20.50;67.90;;;;;;5009054;28;92219;-44
2023/06/30 13:01:48;;;;;;;;;;;20.50;67.90;;;;;;5012972;28;92554;-43
2023/06/30 13:04:14;;;;;;;;;;;20.50;67.90;;;;;;5009148;28;93035;-43
2023/06/30 13:06:40;;;;;;;;;;;20.60;67.90;;;;;;5012061;28;92393;-46
2023/06/30 13:09:06;;;;;;;;;;;20.60;67.90;;;;;;5009791;28;92995;-44
2023/06/30 13:11:31;;;;;;;;;;;20.60;67.90;;;;;;5009931;28;92163;-43
2023/06/30 13:13:57;;;;;;;;;;;20.60;67.80;;;;;;5010533;28;92092;-46
2023/06/30 13:16:22;;;;;;;;;;;20.60;67.80;;;;;;5009870;28;93010;-46
2023/06/30 13:18:48;;;;;;;;;;;20.70;67.80;;;;;;5010953;28;92258;-46
2023/06/30 13:21:13;;;;;;;;;;;20.70;67.70;;;;;;5010856;28;92517;-46
2023/06/30 13:23:39;;;;;;;;;;;20.80;67.70;;;;;;5009551;28;94475;-46
2023/06/30 13:26:06;;;;;;;;;;;20.80;67.70;;;;;;5011443;28;91868;-44
2023/06/30 13:28:31;;;;;;;;;;;20.80;67.70;;;;;;5009772;28;92177;-48
2023/06/30 13:30:57;;;;;;;;;;;20.90;68.30;;;;;;5013750;28;93102;-47
2023/06/30 13:33:23;;;;;;;;;;;20.90;67.60;;;;;;5008991;28;92978;-46
2023/06/30 13:35:49;;;;;;;;;;;20.90;67.70;;;;;;5010969;28;93084;-47
2023/06/30 13:38:14;;;;;;;;;;;21.00;67.70;;;;;;5009382;28;92216;-46
2023/06/30 13:40:40;;;;;;;;;;;21.00;67.60;;;;;;5008698;28;92279;-43
2023/06/30 13:43:05;;;;;;;;;;;21.00;67.50;;;;;;5011710;28;93274;-46
2023/06/30 13:45:31;;;;;;;;;;;21.00;67.50;;;;;;5008581;28;92006;-46
2023/06/30 13:47:57;;;;;;;;;;;21.10;67.60;;;;;;5011971;28;92611;-48
2023/06/30 13:50:23;;;;;;;;;;;21.10;67.70;;;;;;5011332;28;92456;-46
2023/06/30 13:52:48;;;;;;;;;;;21.10;67.70;;;;;;5011611;28;92849;-49
2023/06/30 13:55:14;;;;;;;;;;;21.20;67.50;;;;;;5007863;28;93128;-43
2023/06/30 13:57:39;;;;;;;;;;;21.20;67.50;;;;;;5008199;28;93121;-43
2023/06/30 14:00:05;;;;;;;;;;;21.20;67.50;;;;;;5011137;28;92618;-43
2023/06/30 14:02:31;;;;;;;;;;;21.30;67.60;;;;;;5008652;28;93043;-43
2023/06/30 14:04:56;;;;;;;;;;;21.30;67.50;;;;;;5010322;28;92399;-42
2023/06/30 14:07:22;;;;;;;;;;;21.30;67.40;;;;;;5009822;28;92697;-43
2023/06/30 14:09:47;;;;;;;;;;;21.40;67.40;;;;;;5007077;28;93288;-43
2023/06/30 14:12:13;;;;;;;;;;;21.50;67.40;;;;;;5013157;28;92235;-44